Time;durP1;ratioP1;P1;durP2;ratioP2;P2;SDS_P1;SDS_P2;PMS_P1;PMS_P2;Temp;Humidity;BMP_temperature;BMP_pressure;BME280_temperature;BME280_humidity;BME280_pressure;Samples;Min_cycle;Max_cycle;Signal;HPM_P1;HPM_P2
2022/04/29 00:01:44;;;;;;;6.20;2.42;;;;;;;12.07;63.25;102764.97;7391976;19;20067;-65
2022/04/29 00:04:11;;;;;;;10.60;2.75;;;;;;;12.09;63.16;102776.22;7388601;19;20010;-64
2022/04/29 00:06:38;;;;;;;8.90;3.15;;;;;;;12.07;63.25;102778.16;7389515;19;20010;-64
2022/04/29 00:09:05;;;;;;;13.82;3.17;;;;;;;12.07;63.55;102772.03;7391293;19;20583;-67
2022/04/29 00:11:33;;;;;;;6.57;3.05;;;;;;;11.98;63.97;102770.94;7390239;19;20025;-64
2022/04/29 00:14:00;;;;;;;8.20;2.90;;;;;;;11.88;64.33;102769.94;7389593;19;20015;-65
2022/04/29 00:16:27;;;;;;;8.25;3.75;;;;;;;11.83;64.70;102761.53;7389138;19;20013;-65
2022/04/29 00:18:54;;;;;;;11.40;2.55;;;;;;;11.78;64.91;102755.75;7386261;19;20014;-64
2022/04/29 00:21:25;;;;;;;9.50;3.25;;;;;;;11.73;65.22;102761.34;7388970;19;20020;-64
2022/04/29 00:23:52;;;;;;;9.77;3.20;;;;;;;11.69;65.48;102756.34;7391336;19;20081;-65
2022/04/29 00:26:19;;;;;;;8.60;3.05;;;;;;;11.69;65.64;102754.56;7386318;19;20130;-65
2022/04/29 00:28:46;;;;;;;7.70;2.83;;;;;;;11.69;65.80;102759.00;7391561;19;20487;-65
2022/04/29 00:31:13;;;;;;;7.55;2.97;;;;;;;11.69;66.48;102754.56;7387530;19;20014;-65
2022/04/29 00:33:41;;;;;;;6.68;2.90;;;;;;;11.67;67.41;102759.13;7390817;19;20038;-65
2022/04/29 00:36:08;;;;;;;10.05;3.38;;;;;;;11.70;66.22;102745.72;7387782;19;20014;-65
2022/04/29 00:38:35;;;;;;;8.68;3.10;;;;;;;11.70;66.33;102747.50;7388413;19;20014;-63
2022/04/29 00:41:02;;;;;;;10.05;2.90;;;;;;;11.68;66.71;102750.28;7388527;19;20029;-64
2022/04/29 00:43:29;;;;;;;11.75;3.80;;;;;;;11.67;67.04;102751.22;7385839;19;20021;-66
2022/04/29 00:45:55;;;;;;;11.55;3.00;;;;;;;11.69;66.75;102756.34;7387367;19;20110;-65
2022/04/29 00:48:22;;;;;;;9.75;2.90;;;;;;;11.67;67.23;102751.22;7386930;19;20010;-65
2022/04/29 00:50:49;;;;;;;10.13;3.03;;;;;;;11.62;67.65;102747.22;7388164;19;20120;-64
2022/04/29 00:53:18;;;;;;;12.57;3.25;;;;;;;11.61;68.16;102748.19;7384275;19;20019;-66
2022/04/29 00:55:46;;;;;;;10.38;3.85;;;;;;;11.58;68.40;102751.88;7386488;19;20016;-63
2022/04/29 00:58:33;;;;;;;12.07;3.55;;;;;;;11.60;68.70;102744.69;7389729;19;20003;-64
2022/04/29 01:01:02;;;;;;;11.90;3.78;;;;;;;11.55;68.89;102736.28;7383846;19;20344;-66
2022/04/29 01:03:29;;;;;;;10.43;3.45;;;;;;;11.54;68.93;102743.34;7386535;19;20435;-66
2022/04/29 01:05:56;;;;;;;8.43;3.22;;;;;;;11.52;69.33;102742.63;7388515;19;20330;-65
2022/04/29 01:08:23;;;;;;;14.52;3.72;;;;;;;11.51;70.31;102743.59;7387993;19;20058;-64
2022/04/29 01:10:50;;;;;;;13.02;3.58;;;;;;;11.47;69.99;102736.84;7383729;19;20392;-65
2022/04/29 01:13:18;;;;;;;8.98;3.28;;;;;;;11.50;70.07;102727.88;7388311;19;20021;-65
2022/04/29 01:15:45;;;;;;;9.30;4.68;;;;;;;11.52;71.46;102732.09;7386001;19;20041;-63
2022/04/29 01:18:13;;;;;;;8.55;3.33;;;;;;;11.52;70.63;102726.81;7388395;19;20460;-62
2022/04/29 01:20:41;;;;;;;10.75;3.53;;;;;;;11.53;70.17;102730.25;7385709;19;20329;-65
2022/04/29 01:23:10;;;;;;;10.70;3.80;;;;;;;11.57;69.68;102721.22;7387741;19;20096;-64
2022/04/29 01:25:38;;;;;;;9.35;3.25;;;;;;;11.54;69.93;102716.13;7384334;19;20006;-66
2022/04/29 01:28:05;;;;;;;8.95;3.15;;;;;;;11.52;70.05;102718.06;7386328;19;20007;-66
2022/04/29 01:30:33;;;;;;;7.15;2.58;;;;;;;11.53;70.14;102709.19;7385313;19;20349;-65
2022/04/29 01:33:01;;;;;;;10.35;3.05;;;;;;;11.51;69.98;102711.94;7388109;19;20118;-64
2022/04/29 01:35:28;;;;;;;10.10;4.05;;;;;;;11.51;70.92;102706.69;7386473;19;20017;-66
2022/04/29 01:37:56;;;;;;;6.95;2.42;;;;;;;11.53;70.40;102704.75;7383722;19;20739;-65
2022/04/29 01:40:22;;;;;;;6.82;2.58;;;;;;;11.48;70.49;102708.69;7388023;19;20073;-63
2022/04/29 01:42:49;;;;;;;10.38;3.45;;;;;;;11.46;70.78;102703.53;7383987;19;20315;-66
2022/04/29 01:45:16;;;;;;;8.40;3.13;;;;;;;11.44;71.03;102697.53;7386421;19;20329;-65
2022/04/29 01:47:43;;;;;;;8.50;2.75;;;;;;;11.46;70.67;102686.88;7383224;19;20481;-66
2022/04/29 01:50:10;;;;;;;15.02;5.60;;;;;;;11.44;71.30;102686.97;7386206;19;20467;-64
2022/04/29 01:52:37;;;;;;;10.13;3.08;;;;;;;11.40;71.18;102687.31;7384779;19;20015;-66
2022/04/29 01:55:04;;;;;;;10.00;2.60;;;;;;;11.38;71.40;102686.56;7385549;19;20081;-64
2022/04/29 01:57:31;;;;;;;10.75;3.72;;;;;;;11.40;71.55;102676.78;7386777;19;20015;-65
2022/04/29 01:59:58;;;;;;;10.05;3.33;;;;;;;11.41;71.22;102675.81;7386864;19;20090;-64
2022/04/29 02:02:25;;;;;;;8.93;3.22;;;;;;;11.38;71.28;102678.66;7386019;19;20118;-64
2022/04/29 02:04:52;;;;;;;11.10;3.97;;;;;;;11.40;71.86;102671.50;7382598;19;20031;-64
2022/04/29 02:07:19;;;;;;;11.50;3.33;;;;;;;11.37;72.05;102671.75;7389335;19;20350;-65
2022/04/29 02:09:46;;;;;;;14.45;4.05;;;;;;;11.35;71.32;102669.22;7383380;19;20125;-63
2022/04/29 02:12:15;;;;;;;8.20;2.95;;;;;;;11.36;71.52;102668.25;7387450;19;20091;-64
2022/04/29 02:14:42;;;;;;;9.75;3.33;;;;;;;11.32;71.48;102666.81;7385018;19;20460;-64
2022/04/29 02:17:11;;;;;;;9.57;4.00;;;;;;;11.24;71.25;102669.13;7386478;19;20020;-64
2022/04/29 02:19:38;;;;;;;11.27;3.50;;;;;;;11.24;72.44;102660.41;7382254;19;20022;-65
2022/04/29 02:22:08;;;;;;;12.20;2.92;;;;;;;11.17;71.78;102652.13;7384897;19;20061;-65
2022/04/29 02:24:36;;;;;;;9.10;3.45;;;;;;;11.11;71.84;102648.13;7387645;19;20074;-66
2022/04/29 02:27:04;;;;;;;14.95;3.75;;;;;;;11.13;72.15;102658.53;7385384;19;20108;-66
2022/04/29 02:29:30;;;;;;;8.77;3.25;;;;;;;11.14;72.26;102650.53;7383195;19;20432;-64
2022/04/29 02:31:57;;;;;;;10.00;3.67;;;;;;;11.10;72.04;102648.22;7381521;19;20021;-65
2022/04/29 02:34:28;;;;;;;11.00;3.33;;;;;;;11.10;73.06;102649.06;7386952;19;20353;-63
2022/04/29 02:36:57;;;;;;;13.73;3.40;;;;;;;11.08;72.39;102647.50;7387919;19;20559;-65
2022/04/29 02:39:27;;;;;;;14.45;3.67;;;;;;;11.06;72.45;102655.53;7385030;19;20038;-65
2022/04/29 02:41:54;;;;;;;9.90;3.35;;;;;;;11.06;73.07;102650.25;7381705;19;20402;-66
2022/04/29 02:44:22;;;;;;;10.55;3.08;;;;;;;11.05;72.69;102651.19;7385186;19;20015;-65
2022/04/29 02:47:07;;;;;;;13.45;3.13;;;;;;;11.04;72.94;102651.31;7384334;19;20342;-65
2022/04/29 02:49:36;;;;;;;9.13;3.85;;;;;;;10.98;73.19;102657.00;7392510;19;20050;-64
2022/04/29 02:52:05;;;;;;;12.35;3.45;;;;;;;10.96;73.17;102657.13;7391242;19;20022;-63
2022/04/29 02:54:32;;;;;;;8.82;3.60;;;;;;;10.95;73.55;102650.19;7389911;19;20006;-64
2022/04/29 02:56:59;;;;;;;10.35;3.42;;;;;;;10.94;73.72;102648.50;7392383;19;20527;-65
2022/04/29 02:59:26;;;;;;;10.18;2.75;;;;;;;10.90;73.48;102639.13;7388337;19;20370;-64
2022/04/29 03:01:53;;;;;;;6.05;3.15;;;;;;;10.92;73.80;102654.84;7391023;19;20050;-64
2022/04/29 03:04:20;;;;;;;7.47;3.58;;;;;;;10.89;73.50;102650.63;7393174;19;20078;-65
2022/04/29 03:06:47;;;;;;;9.25;3.33;;;;;;;10.87;73.83;102656.97;7388205;19;20481;-65
2022/04/29 03:09:14;;;;;;;11.45;3.30;;;;;;;10.80;73.75;102640.75;7393518;19;20479;-65
2022/04/29 03:11:41;;;;;;;9.32;3.38;;;;;;;10.82;73.55;102649.34;7388866;19;20113;-67
2022/04/29 03:14:08;;;;;;;9.45;2.55;;;;;;;10.85;72.90;102651.78;7392566;19;20078;-64
2022/04/29 03:16:35;;;;;;;9.18;3.67;;;;;;;10.85;73.25;102648.31;7390541;19;20435;-64
2022/04/29 03:19:01;;;;;;;9.65;2.95;;;;;;;10.83;72.97;102648.41;7392096;19;20041;-65
2022/04/29 03:21:28;;;;;;;5.20;2.25;;;;;;;10.82;72.85;102646.72;7393219;19;20006;-63
2022/04/29 03:23:55;;;;;;;10.98;3.00;;;;;;;10.84;73.77;102654.53;7389204;19;20440;-64
2022/04/29 03:26:22;;;;;;;7.07;2.58;;;;;;;10.84;73.05;102655.38;7390034;19;20010;-65
2022/04/29 03:28:49;;;;;;;10.02;2.33;;;;;;;10.78;72.32;102658.44;7391067;19;20019;-65
2022/04/29 03:31:21;;;;;;;7.93;3.00;;;;;;;10.82;73.58;102654.63;7387765;19;20010;-64
2022/04/29 03:33:52;;;;;;;8.60;3.05;;;;;;;10.82;72.81;102656.44;7392427;19;20330;-65
2022/04/29 03:36:19;;;;;;;6.45;2.85;;;;;;;10.82;72.53;102662.53;7391670;19;20360;-64
2022/04/29 03:38:46;;;;;;;10.02;3.17;;;;;;;10.78;72.93;102653.16;7386951;19;20014;-62
2022/04/29 03:41:13;;;;;;;11.70;4.45;;;;;;;10.74;72.92;102651.72;7392659;19;20011;-64
2022/04/29 03:43:41;;;;;;;9.77;4.13;;;;;;;10.68;73.01;102650.34;7387728;19;20077;-65
2022/04/29 03:46:08;;;;;;;14.23;4.07;;;;;;;10.68;73.89;102655.59;7389624;19;20010;-64
2022/04/29 03:51:25;;;;;;;13.82;4.88;;;;;;;10.64;73.46;102656.78;7389304;19;20022;-66
2022/04/29 03:53:52;;;;;;;9.03;4.43;;;;;;;10.61;73.50;102656.16;7388977;19;20477;-65
2022/04/29 03:56:19;;;;;;;13.35;4.57;;;;;;;10.55;73.67;102660.06;7390150;19;20010;-63
2022/04/29 03:58:46;;;;;;;16.85;4.97;;;;;;;10.52;73.75;102654.16;7391212;19;20018;-64
2022/04/29 04:01:13;;;;;;;14.73;6.05;;;;;;;10.49;73.72;102652.59;7388102;19;20027;-64
2022/04/29 04:03:40;;;;;;;11.82;5.18;;;;;;;10.45;74.11;102653.75;7392097;19;20047;-64
2022/04/29 04:08:54;;;;;;;13.63;5.07;;;;;;;10.36;74.70;102649.13;7391194;19;20018;-66
2022/04/29 04:11:21;;;;;;;13.77;5.30;;;;;;;10.35;74.51;102646.59;7384195;19;20074;-63
2022/04/29 04:13:48;;;;;;;11.38;4.50;;;;;;;10.35;75.27;102647.44;7391844;19;20031;-65
2022/04/29 04:16:15;;;;;;;12.70;3.60;;;;;;;10.34;74.80;102655.44;7387240;19;20011;-66
2022/04/29 04:18:42;;;;;;;12.27;4.30;;;;;;;10.34;74.62;102655.44;7391710;19;20021;-64
2022/04/29 04:21:09;;;;;;;8.95;4.05;;;;;;;10.34;74.85;102658.06;7392685;19;20011;-65
2022/04/29 04:23:36;;;;;;;11.30;4.38;;;;;;;10.38;74.23;102656.91;7389170;19;20359;-66
2022/04/29 04:26:03;;;;;;;11.25;4.32;;;;;;;10.35;74.24;102651.88;7391182;19;20014;-62
2022/04/29 04:28:30;;;;;;;12.50;5.00;;;;;;;10.36;74.22;102651.78;7390482;19;20021;-66
2022/04/29 04:30:57;;;;;;;12.13;4.07;;;;;;;10.33;74.57;102651.97;7385928;19;20027;-64
2022/04/29 04:33:27;;;;;;;12.95;3.45;;;;;;;10.31;74.49;102648.59;7388775;19;20015;-64
2022/04/29 04:35:55;;;;;;;13.93;4.28;;;;;;;10.27;74.42;102655.84;7386422;19;20022;-62
2022/04/29 04:38:22;;;;;;;12.18;4.18;;;;;;;10.23;74.43;102643.03;7389109;19;21881;-65
2022/04/29 04:40:49;;;;;;;19.40;7.03;;;;;;;10.19;74.84;102649.44;7391798;19;20081;-65
2022/04/29 04:43:16;;;;;;;11.35;4.60;;;;;;;10.18;74.61;102655.66;7386439;19;20017;-64
2022/04/29 04:45:46;;;;;;;14.13;4.25;;;;;;;10.11;74.84;102655.19;7386075;19;20537;-64
2022/04/29 04:48:13;;;;;;;12.43;4.68;;;;;;;10.01;74.80;102658.53;7385570;19;20020;-67
2022/04/29 04:50:40;;;;;;;10.50;4.25;;;;;;;9.97;75.14;102665.81;7384958;19;20086;-65
2022/04/29 04:53:07;;;;;;;10.02;3.88;;;;;;;9.91;75.29;102663.56;7391838;19;20046;-65
2022/04/29 04:55:36;;;;;;;9.05;3.80;;;;;;;9.87;75.19;102657.69;7389731;19;20014;-66
2022/04/29 04:58:03;;;;;;;13.88;5.20;;;;;;;9.85;75.79;102656.13;7388329;19;20018;-65
2022/04/29 05:00:30;;;;;;;12.95;4.00;;;;;;;9.86;75.71;102665.66;7387768;19;20014;-65
2022/04/29 05:02:56;;;;;;;14.15;4.80;;;;;;;9.80;75.60;102653.78;7385320;19;20007;-65
2022/04/29 05:05:24;;;;;;;10.05;3.60;;;;;;;9.82;76.15;102661.56;7386871;19;20006;-66
2022/04/29 05:07:50;;;;;;;17.17;4.22;;;;;;;9.78;75.82;102655.69;7388685;19;20044;-64
2022/04/29 05:10:18;;;;;;;9.70;4.32;;;;;;;9.81;76.01;102662.50;7384101;19;20006;-66
2022/04/29 05:12:46;;;;;;;10.07;4.20;;;;;;;9.86;76.37;102668.31;7385662;19;20387;-67
2022/04/29 05:15:14;;;;;;;10.73;5.22;;;;;;;9.92;75.65;102665.25;7386833;19;20021;-64
2022/04/29 05:17:41;;;;;;;16.38;5.47;;;;;;;9.98;75.48;102671.91;7384644;19;20410;-64
2022/04/29 05:20:11;;;;;;;12.45;4.07;;;;;;;10.03;74.46;102680.31;7384573;19;20097;-63
2022/04/29 05:22:39;;;;;;;10.35;3.83;;;;;;;10.05;74.42;102688.97;7386232;19;20007;-62
2022/04/29 05:25:06;;;;;;;9.05;4.30;;;;;;;10.04;74.16;102685.50;7390286;19;20028;-65
2022/04/29 05:27:33;;;;;;;9.43;3.67;;;;;;;10.05;74.02;102697.69;7388371;19;20007;-68
2022/04/29 05:30:00;;;;;;;10.25;3.50;;;;;;;10.11;73.66;102691.16;7388839;19;20009;-64
2022/04/29 05:32:34;;;;;;;12.27;4.13;;;;;;;10.11;73.92;102699.03;7385265;19;20526;-67
2022/04/29 05:35:04;;;;;;;12.20;3.38;;;;;;;10.06;73.85;102696.72;7386376;19;20018;-67
2022/04/29 05:37:31;;;;;;;8.55;3.72;;;;;;;10.08;73.68;102699.28;7390454;19;20021;-63
2022/04/29 05:42:43;;;;;;;5.15;3.15;;;;;;;10.04;73.40;102692.53;7384639;19;20018;-64
2022/04/29 05:45:10;;;;;;;8.85;3.33;;;;;;;10.10;73.69;102700.03;7389334;19;20024;-63
2022/04/29 05:47:37;;;;;;;11.52;3.90;;;;;;;10.09;73.81;102704.44;7388423;19;20562;-64
2022/04/29 05:50:04;;;;;;;11.07;3.45;;;;;;;10.13;73.75;102702.44;7388413;19;20021;-64
2022/04/29 05:52:31;;;;;;;9.13;3.88;;;;;;;10.13;73.28;102710.31;7384807;19;20015;-64
2022/04/29 05:54:58;;;;;;;10.82;4.15;;;;;;;10.16;73.97;102712.75;7386724;19;20007;-65
2022/04/29 05:57:25;;;;;;;11.02;4.07;;;;;;;10.17;74.16;102709.19;7386873;19;20015;-64
2022/04/29 05:59:52;;;;;;;12.18;3.10;;;;;;;10.21;72.79;102713.28;7384941;19;20032;-64
2022/04/29 06:02:21;;;;;;;11.50;3.20;;;;;;;10.23;72.98;102720.16;7383337;19;20017;-65
2022/04/29 06:04:48;;;;;;;8.50;3.47;;;;;;;10.22;72.95;102718.47;7386654;19;20035;-64
2022/04/29 06:07:15;;;;;;;9.20;3.97;;;;;;;10.21;72.62;102719.41;7384702;19;20014;-63
2022/04/29 06:09:42;;;;;;;10.38;3.72;;;;;;;10.20;72.48;102720.38;7384147;19;20014;-65
2022/04/29 06:12:10;;;;;;;10.23;3.50;;;;;;;10.17;72.65;102722.34;7387076;19;20432;-64
2022/04/29 06:14:37;;;;;;;7.47;2.92;;;;;;;10.09;72.88;102722.84;7384510;19;20070;-64
2022/04/29 06:17:04;;;;;;;10.68;2.95;;;;;;;10.14;72.91;102723.38;7384767;19;20019;-62
2022/04/29 06:19:37;;;;;;;13.55;3.75;;;;;;;10.24;72.17;102721.84;7384170;19;20029;-65
2022/04/29 06:22:04;;;;;;;;;;;;;;;10.31;71.85;102717.00;7383113;19;20011;-64
2022/04/29 06:24:32;;;;;;;7.93;2.60;;;;;;;10.32;71.40;102709.94;7395127;19;19923;-63
2022/04/29 06:27:19;;;;;;;9.52;2.95;;;;;;;10.34;72.19;102705.44;7393704;19;20011;-63
2022/04/29 06:29:48;;;;;;;5.65;3.05;;;;;;;10.40;71.50;102702.38;7391567;19;20337;-65
2022/04/29 06:32:15;;;;;;;7.15;2.67;;;;;;;10.40;71.17;102702.38;7390279;19;20278;-65
2022/04/29 06:34:45;;;;;;;5.43;3.38;;;;;;;10.47;70.56;102699.22;7390191;19;20030;-64
2022/04/29 06:37:12;;;;;;;8.25;2.90;;;;;;;10.53;71.48;102703.22;7394572;19;20430;-65
2022/04/29 06:39:38;;;;;;;7.65;2.60;;;;;;;10.60;70.98;102710.59;7391456;19;20074;-66
2022/04/29 06:42:07;;;;;;;9.60;3.53;;;;;;;10.72;70.03;102707.09;7394323;19;20082;-65
2022/04/29 06:44:37;;;;;;;9.75;2.90;;;;;;;10.76;69.42;102706.91;7392596;19;20011;-65
2022/04/29 06:47:04;;;;;;;6.22;2.72;;;;;;;10.88;69.00;102716.53;7392549;19;20091;-65
2022/04/29 06:49:38;;;;;;;6.78;2.05;;;;;;;10.95;68.67;102720.44;7390097;19;20014;-64
2022/04/29 06:52:05;;;;;;;11.45;2.78;;;;;;;10.99;68.19;102725.38;7389773;19;20193;-64
2022/04/29 06:54:32;;;;;;;4.57;1.80;;;;;;;11.06;66.52;102724.00;7391955;19;20030;-65
2022/04/29 06:56:59;;;;;;;7.38;1.70;;;;;;;10.85;66.36;102730.78;7393991;19;20358;-65
2022/04/29 06:59:29;;;;;;;6.45;2.20;;;;;;;10.89;66.18;102726.97;7391825;19;20006;-64
2022/04/29 07:02:04;;;;;;;7.10;1.80;;;;;;;10.81;66.16;102725.84;7393608;19;20011;-65
2022/04/29 07:04:32;;;;;;;3.38;1.67;;;;;;;10.78;66.30;102732.16;7391229;19;20018;-65
2022/04/29 07:06:59;;;;;;;6.68;1.40;;;;;;;10.73;65.60;102735.09;7392349;19;20812;-65
2022/04/29 07:09:28;;;;;;;6.07;1.98;;;;;;;10.72;65.85;102738.69;7390039;19;20647;-64
2022/04/29 07:12:20;;;;;;;6.50;2.15;;;;;;;10.75;66.24;102749.97;7390837;19;20015;-66
2022/04/29 07:14:47;;;;;;;5.05;1.80;;;;;;;10.81;66.02;102749.53;7391331;19;20015;-66
2022/04/29 07:17:14;;;;;;;3.42;1.55;;;;;;;10.92;65.30;102747.00;7391906;19;20010;-64
2022/04/29 07:19:41;;;;;;;5.45;1.45;;;;;;;11.08;65.05;102750.22;7392671;19;20117;-64
2022/04/29 07:22:28;;;;;;;6.93;1.40;;;;;;;11.15;64.05;102747.06;7361186;19;20014;-64
2022/04/29 07:24:58;;;;;;;10.27;1.58;;;;;;;11.15;63.87;102747.06;7381450;19;20428;-65
2022/04/29 07:27:28;;;;;;;5.82;1.60;;;;;;;11.19;63.50;102754.75;7370781;19;20006;-64
2022/04/29 07:29:55;;;;;;;4.35;1.45;;;;;;;11.20;63.42;102754.63;7382881;19;20026;-65
2022/04/29 07:32:24;;;;;;;5.15;1.58;;;;;;;11.22;64.24;102746.63;7385213;19;20017;-64
2022/04/29 07:43:18;;;;;;;9.73;1.73;;;;;;;11.28;63.78;102744.38;7385093;19;20122;-65
2022/04/29 07:45:45;;;;;;;3.40;1.30;;;;;;;11.29;63.73;102747.84;7387733;19;20015;-64
2022/04/29 07:48:12;;;;;;;5.80;1.05;;;;;;;11.31;62.66;102746.81;7383983;19;20086;-65
2022/04/29 07:50:40;;;;;;;6.72;1.02;;;;;;;11.39;62.10;102747.09;7386405;19;20010;-64
2022/04/29 07:53:08;;;;;;;4.40;1.20;;;;;;;11.51;61.82;102745.38;7391589;19;20047;-63
2022/04/29 07:55:36;;;;;;;7.47;1.30;;;;;;;11.50;61.89;102743.69;7388826;19;20041;-64
2022/04/29 07:58:05;;;;;;;4.32;1.00;;;;;;;11.50;61.28;102746.31;7390424;19;20011;-67
2022/04/29 08:00:32;;;;;;;4.70;1.20;;;;;;;11.48;61.64;102741.16;7387438;19;20021;-65
2022/04/29 08:03:19;;;;;;;4.65;1.10;;;;;;;11.40;61.87;102745.31;7386549;19;20014;-65
2022/04/29 08:05:46;;;;;;;5.10;1.58;;;;;;;11.41;62.58;102747.84;7384154;19;20030;-64
2022/04/29 08:08:13;;;;;;;4.75;0.90;;;;;;;11.38;61.74;102747.19;7389085;19;20045;-65
2022/04/29 08:10:40;;;;;;;11.77;3.50;;;;;;;11.39;61.45;102749.72;7386346;19;20018;-65
2022/04/29 08:13:07;;;;;;;5.45;1.60;;;;;;;11.40;61.99;102750.56;7385999;19;20021;-66
2022/04/29 08:15:34;;;;;;;5.72;1.38;;;;;;;11.46;62.29;102761.53;7385603;19;20017;-65
2022/04/29 08:18:03;;;;;;;5.65;1.45;;;;;;;11.55;61.23;102762.66;7372816;19;20010;-65
2022/04/29 08:20:31;;;;;;;7.35;1.55;;;;;;;11.59;61.48;102754.41;7389880;19;20014;-66
2022/04/29 08:22:58;;;;;;;8.20;1.65;;;;;;;11.69;62.77;102751.09;7386005;19;20775;-64
2022/04/29 08:25:25;;;;;;;10.80;1.73;;;;;;;11.77;63.71;102752.25;7387845;19;20490;-66
2022/04/29 08:27:52;;;;;;;6.20;1.67;;;;;;;11.90;64.14;102749.53;7390423;19;20010;-65
2022/04/29 08:30:19;;;;;;;5.57;1.20;;;;;;;12.05;62.87;102742.28;7384789;19;20011;-65
2022/04/29 08:32:47;;;;;;;5.80;1.17;;;;;;;12.15;60.75;102741.47;7385567;19;20007;-66
2022/04/29 08:35:14;;;;;;;4.80;1.55;;;;;;;12.17;60.27;102742.22;7386790;19;20027;-64
2022/04/29 08:37:42;;;;;;;4.57;1.45;;;;;;;12.20;58.86;102741.13;7383301;19;20474;-63
2022/04/29 08:40:11;;;;;;;4.80;1.40;;;;;;;12.21;60.17;102737.53;7386171;19;20018;-66
2022/04/29 08:42:40;;;;;;;7.90;1.40;;;;;;;12.16;59.87;102745.81;7383696;19;20063;-66
2022/04/29 08:45:07;;;;;;;9.38;1.27;;;;;;;12.16;59.39;102743.16;7387199;19;20014;-65
2022/04/29 08:47:39;;;;;;;8.23;1.38;;;;;;;12.15;59.73;102751.19;7385530;19;20366;-66
2022/04/29 08:50:17;;;;;;;5.97;1.65;;;;;;;11.95;59.30;102752.69;7387710;19;20128;-63
2022/04/29 08:52:50;;;;;;;6.32;1.40;;;;;;;11.94;60.05;102761.53;7382611;19;20313;-65
2022/04/29 09:00:49;;;;;;;3.90;1.55;;;;;;;11.85;60.55;102767.50;7385295;19;20490;-67
2022/04/29 09:03:21;;;;;;;7.13;2.20;;;;;;;11.83;61.41;102769.44;7388287;19;20123;-65
2022/04/29 09:05:50;;;;;;;5.88;1.42;;;;;;;11.80;60.61;102774.91;7388446;19;20543;-65
2022/04/29 09:08:20;;;;;;;5.38;1.38;;;;;;;11.80;60.28;102773.13;7388577;19;20038;-63
2022/04/29 09:10:49;;;;;;;5.72;1.05;;;;;;;11.77;60.53;102772.50;7390174;19;20121;-66
2022/04/29 09:13:26;;;;;;;4.20;1.50;;;;;;;11.75;61.77;102779.69;7387315;19;20034;-65
2022/04/29 09:16:04;;;;;;;5.68;1.38;;;;;;;11.77;60.72;102767.25;7386296;19;20259;-63
2022/04/29 09:18:41;;;;;;;11.02;4.15;;;;;;;11.75;59.86;102783.16;7384262;19;20492;-66
2022/04/29 09:21:22;;;;;;;8.70;1.83;;;;;;;11.76;59.70;102782.22;7386827;19;20016;-65
2022/04/29 09:23:59;;;;;;;3.67;1.27;;;;;;;11.77;59.20;102775.16;7387364;19;20110;-64
2022/04/29 09:26:28;;;;;;;4.43;1.13;;;;;;;11.68;58.77;102781.91;7385981;19;20013;-66
2022/04/29 09:29:12;;;;;;;5.47;0.88;;;;;;;11.58;58.89;102780.88;7389143;19;20381;-66
2022/04/29 09:31:53;;;;;;;3.72;1.02;;;;;;;11.55;60.79;102789.00;7385649;19;20468;-66
2022/04/29 09:34:47;;;;;;;3.38;0.98;;;;;;;11.59;59.59;102793.09;7384646;19;20022;-63
2022/04/29 09:39:26;;;;;;;5.70;1.00;;;;;;;11.53;58.76;102790.91;7386640;19;20544;-65
2022/04/29 09:40:36;;;;;;;4.47;0.80;;;;;;;11.55;58.31;102791.66;7387795;19;20023;-64
2022/04/29 09:43:03;;;;;;;3.33;0.80;;;;;;;11.58;59.12;102784.34;7383209;19;20215;-67
2022/04/29 09:45:32;;;;;;;1.85;0.98;;;;;;;11.58;57.56;102786.97;7384990;19;20010;-66
2022/04/29 09:47:58;;;;;;;4.25;0.95;;;;;;;11.63;59.34;102791.91;7384625;19;20013;-65
2022/04/29 09:50:46;;;;;;;2.92;0.73;;;;;;;11.62;57.76;102799.97;7384616;19;20022;-65
2022/04/29 09:53:21;;;;;;;3.47;0.50;;;;;;;11.69;56.95;102799.41;7382099;19;20021;-65
2022/04/29 09:56:09;;;;;;;3.03;0.60;;;;;;;11.71;56.69;102784.31;7387179;19;20014;-63
2022/04/29 09:58:36;;;;;;;2.47;0.63;;;;;;;11.72;57.32;102793.06;7385463;19;20011;-65
2022/04/29 10:01:07;;;;;;;3.28;0.70;;;;;;;11.69;57.91;102790.63;7386348;19;20693;-64
2022/04/29 10:03:35;;;;;;;4.63;0.80;;;;;;;11.70;56.37;102789.69;7384555;19;20018;-64
2022/04/29 10:06:05;;;;;;;2.40;0.93;;;;;;;11.68;56.38;102789.81;7385338;19;20019;-64
2022/04/29 10:08:33;;;;;;;2.45;0.60;;;;;;;11.67;56.38;102788.13;7382651;19;20035;-64
2022/04/29 10:11:01;;;;;;;5.22;0.60;;;;;;;11.68;56.57;102789.81;7382253;19;20390;-65
2022/04/29 10:13:29;;;;;;;4.78;0.90;;;;;;;11.70;56.49;102797.59;7387306;19;20496;-65
2022/04/29 10:15:57;;;;;;;1.52;0.70;;;;;;;11.70;56.13;102794.97;7384722;19;20015;-65
2022/04/29 10:21:16;;;;;;;3.40;0.90;;;;;;;11.76;56.15;102794.56;7382833;19;20014;-65
2022/04/29 10:23:50;;;;;;;2.92;0.75;;;;;;;11.78;56.20;102788.22;7386711;19;20029;-65
2022/04/29 10:26:21;;;;;;;5.68;0.80;;;;;;;11.77;57.14;102786.53;7382426;19;20488;-65
2022/04/29 10:28:49;;;;;;;8.25;3.03;;;;;;;11.83;57.10;102785.25;7386016;19;20393;-65
2022/04/29 10:31:21;;;;;;;5.10;1.08;;;;;;;11.91;56.36;102789.00;7381171;19;20310;-63
2022/04/29 10:33:48;;;;;;;4.97;0.90;;;;;;;11.95;56.31;102787.81;7385435;19;20018;-65
2022/04/29 10:36:16;;;;;;;4.63;0.90;;;;;;;11.89;55.63;102784.78;7382560;19;20313;-65
2022/04/29 10:38:46;;;;;;;2.70;0.70;;;;;;;11.95;55.96;102781.69;7381580;19;20450;-64
2022/04/29 10:41:21;;;;;;;3.50;0.77;;;;;;;11.94;54.67;102782.66;7381946;19;20006;-66
2022/04/29 10:44:04;;;;;;;2.97;0.60;;;;;;;11.98;54.90;102778.84;7381313;19;20403;-65
2022/04/29 10:46:36;;;;;;;4.53;0.60;;;;;;;12.02;54.32;102787.38;7384207;19;20426;-65
2022/04/29 10:49:23;;;;;;;3.08;0.80;;;;;;;11.97;53.87;102782.44;7382835;19;20018;-62
2022/04/29 10:52:03;;;;;;;4.22;0.52;;;;;;;11.98;53.37;102781.50;7380407;19;20083;-65
2022/04/29 10:54:33;;;;;;;2.08;0.60;;;;;;;12.02;54.66;102782.09;7382856;19;20134;-65
2022/04/29 10:57:07;;;;;;;3.97;0.70;;;;;;;12.10;53.03;102777.91;7383986;19;20562;-64
2022/04/29 10:59:51;;;;;;;2.72;0.75;;;;;;;12.21;52.40;102775.34;7383628;19;20030;-66
2022/04/29 11:02:28;;;;;;;5.35;1.02;;;;;;;12.21;51.65;102775.34;7380747;19;20401;-66
2022/04/29 11:05:00;;;;;;;4.40;0.50;;;;;;;12.24;51.30;102769.81;7382644;19;20010;-65
2022/04/29 11:07:35;;;;;;;2.13;0.68;;;;;;;12.23;50.35;102772.59;7383531;19;20017;-66
2022/04/29 11:10:05;;;;;;;2.65;0.47;;;;;;;12.24;49.94;102769.81;7389413;19;20024;-64
2022/04/29 11:12:34;;;;;;;5.95;0.57;;;;;;;12.21;49.71;102775.34;7386357;19;20038;-65
2022/04/29 11:15:16;;;;;;;2.42;0.80;;;;;;;12.23;51.20;102775.22;7391147;19;20120;-66
2022/04/29 11:17:44;;;;;;;4.40;1.23;;;;;;;12.20;50.77;102764.88;7394196;19;20011;-64
2022/04/29 11:20:20;;;;;;;3.47;1.08;;;;;;;12.19;51.54;102771.13;7388251;19;20002;-64
2022/04/29 11:26:02;;;;;;;4.63;0.80;;;;;;;12.37;50.03;102762.66;7389886;19;20007;-65
2022/04/29 11:28:34;;;;;;;1.52;0.80;;;;;;;12.35;49.98;102766.34;7392026;19;20018;-63
2022/04/29 11:31:03;;;;;;;1.88;0.60;;;;;;;12.35;50.25;102758.44;7389356;19;20347;-66
2022/04/29 11:33:41;;;;;;;6.05;1.00;;;;;;;12.41;52.11;102755.34;7390106;19;20035;-66
2022/04/29 11:36:12;;;;;;;3.85;0.60;;;;;;;12.41;50.12;102750.91;7389252;19;20015;-64
2022/04/29 11:38:44;;;;;;;4.38;0.90;;;;;;;12.41;50.50;102755.34;7392185;19;20082;-64
2022/04/29 11:41:24;;;;;;;3.17;0.70;;;;;;;12.40;50.41;102754.50;7388097;19;20010;-67
2022/04/29 11:43:51;;;;;;;4.90;1.00;;;;;;;12.40;51.20;102759.78;7387336;19;20027;-63
2022/04/29 11:46:19;;;;;;;3.13;0.80;;;;;;;12.32;51.11;102748.97;7390266;19;20022;-64
2022/04/29 11:49:04;;;;;;;3.22;1.10;;;;;;;12.33;51.47;102753.31;7390045;19;20019;-64
2022/04/29 11:51:31;;;;;;;2.15;0.80;;;;;;;12.35;52.78;102746.09;7392299;19;20010;-63
2022/04/29 11:54:00;;;;;;;5.75;1.20;;;;;;;12.31;52.65;102747.28;7389637;19;20021;-67
2022/04/29 11:56:33;;;;;;;5.90;1.17;;;;;;;12.31;53.33;102733.25;7391875;19;20032;-67
2022/04/29 11:59:00;;;;;;;4.70;1.10;;;;;;;12.34;51.97;102739.13;7388854;19;20019;-63
2022/04/29 12:01:27;;;;;;;3.03;0.90;;;;;;;12.32;51.70;102735.78;7387314;19;20018;-66